createdAt,value
2023-08-02T00:00:40.546Z,94.50
2023-08-02T00:01:47.245Z,94.70
2023-08-02T00:02:50.020Z,94.90
2023-08-02T00:04:09.765Z,95.00
2023-08-02T00:05:13.652Z,94.90
2023-08-02T00:06:17.319Z,94.90
2023-08-02T00:07:21.950Z,94.90
2023-08-02T00:08:26.373Z,94.90
2023-08-02T00:09:28.994Z,94.90
2023-08-02T00:10:32.730Z,95.00
2023-08-02T00:11:35.788Z,94.90
2023-08-02T00:12:39.532Z,94.90
2023-08-02T00:13:42.153Z,94.90
2023-08-02T00:14:45.882Z,94.90
2023-08-02T00:15:48.556Z,94.90
2023-08-02T00:16:52.463Z,95.00
2023-08-02T00:17:55.237Z,95.00
2023-08-02T00:18:59.008Z,95.00
2023-08-02T00:20:01.581Z,95.10
2023-08-02T00:21:05.457Z,95.10
2023-08-02T00:22:08.181Z,95.10
2023-08-02T00:23:13.254Z,95.10
2023-08-02T00:24:16.146Z,95.10
2023-08-02T00:25:20.076Z,95.10
2023-08-02T00:26:22.710Z,95.20
2023-08-02T00:27:26.521Z,95.20
2023-08-02T00:28:29.357Z,95.20
2023-08-02T00:29:33.052Z,95.20
2023-08-02T00:30:46.216Z,95.20
2023-08-02T00:31:49.992Z,95.30
2023-08-02T00:32:52.762Z,95.30
2023-08-02T00:33:56.804Z,95.40
2023-08-02T00:34:59.436Z,95.40
2023-08-02T00:36:03.135Z,95.40
2023-08-02T00:37:05.974Z,95.40
2023-08-02T00:38:09.716Z,95.40
2023-08-02T00:39:15.465Z,95.40
2023-08-02T00:40:19.116Z,95.50
2023-08-02T00:41:21.710Z,95.60
2023-08-02T00:42:25.408Z,95.60
2023-08-02T00:43:28.142Z,95.60
2023-08-02T00:44:34.333Z,95.60
2023-08-02T00:45:37.845Z,95.60
2023-08-02T00:46:42.314Z,95.70
2023-08-02T00:47:45.186Z,95.70
2023-08-02T00:48:49.665Z,95.70
2023-08-02T00:49:52.582Z,95.70
2023-08-02T00:50:57.168Z,95.70
2023-08-02T00:52:00.274Z,95.70
2023-08-02T00:53:05.354Z,95.60
2023-08-02T00:54:09.489Z,95.70
2023-08-02T00:55:14.580Z,95.70
2023-08-02T00:56:17.196Z,95.50
2023-08-02T00:57:21.643Z,95.70
2023-08-02T00:58:24.848Z,95.90
2023-08-02T00:59:27.527Z,95.90
2023-08-02T01:00:31.369Z,96.00
2023-08-02T01:01:35.095Z,96.00
2023-08-02T01:02:39.417Z,96.10
2023-08-02T01:03:45.649Z,96.10
2023-08-02T01:04:50.443Z,96.10
2023-08-02T01:06:00.956Z,96.00
2023-08-02T01:07:13.271Z,96.10
2023-08-02T01:08:24.137Z,96.10
2023-08-02T01:09:36.375Z,96.10
2023-08-02T01:10:46.788Z,96.10
2023-08-02T01:11:59.783Z,96.20
2023-08-02T01:13:04.608Z,96.20
2023-08-02T01:14:09.678Z,96.20
2023-08-02T01:15:16.430Z,96.20
2023-08-02T01:16:21.662Z,96.20
2023-08-02T01:17:28.119Z,96.20
2023-08-02T01:18:33.518Z,96.20
2023-08-02T01:19:36.126Z,96.30
2023-08-02T01:20:41.247Z,96.30
2023-08-02T01:21:43.847Z,96.20
2023-08-02T01:22:47.454Z,96.00
2023-08-02T01:23:50.196Z,96.10
2023-08-02T01:24:53.796Z,96.20
2023-08-02T01:25:59.656Z,96.20
2023-08-02T01:27:09.185Z,96.20
2023-08-02T01:28:19.227Z,96.30
2023-08-02T01:29:26.149Z,96.30
2023-08-02T01:30:37.358Z,96.30
2023-08-02T01:31:41.414Z,96.30
2023-08-02T01:32:45.745Z,96.30
2023-08-02T01:33:54.996Z,96.30
2023-08-02T01:34:58.928Z,96.30
2023-08-02T01:36:03.278Z,96.30
2023-08-02T01:37:07.376Z,96.30
2023-08-02T01:38:10.084Z,96.30
2023-08-02T01:39:15.413Z,96.30
2023-08-02T01:40:18.062Z,96.30
2023-08-02T01:41:22.921Z,96.30
2023-08-02T01:42:25.788Z,96.30
2023-08-02T01:43:32.405Z,96.30
2023-08-02T01:44:35.042Z,96.30
2023-08-02T01:45:39.167Z,96.30
2023-08-02T01:46:42.860Z,96.30
2023-08-02T01:47:46.723Z,96.30
2023-08-02T01:48:49.334Z,96.30
2023-08-02T01:49:53.088Z,96.30
2023-08-02T01:50:56.805Z,96.30
2023-08-02T01:52:01.813Z,96.30
2023-08-02T01:53:04.451Z,96.30
2023-08-02T01:54:08.115Z,96.30
2023-08-02T01:55:10.870Z,96.10
2023-08-02T01:56:14.560Z,96.10
2023-08-02T01:57:17.637Z,96.30
2023-08-02T01:58:21.362Z,96.30
2023-08-02T01:59:24.736Z,96.30
2023-08-02T02:00:28.323Z,96.30
2023-08-02T02:01:30.990Z,96.30
2023-08-02T02:02:33.621Z,96.30
2023-08-02T02:03:37.446Z,96.30
2023-08-02T02:04:40.839Z,96.30
2023-08-02T02:05:53.264Z,96.30
2023-08-02T02:06:56.205Z,96.30
2023-08-02T02:08:01.299Z,96.30
2023-08-02T02:09:04.131Z,96.30
2023-08-02T02:10:08.610Z,96.30
2023-08-02T02:12:15.206Z,96.30
2023-08-02T02:13:18.561Z,96.30
2023-08-02T02:14:22.378Z,96.30
2023-08-02T02:15:24.977Z,96.30
2023-08-02T02:16:28.744Z,96.30
2023-08-02T02:17:31.397Z,96.30
2023-08-02T02:18:35.044Z,96.30
2023-08-02T02:19:37.684Z,96.30
2023-08-02T02:20:41.425Z,96.30
2023-08-02T02:21:44.114Z,96.30
2023-08-02T02:22:48.272Z,96.30
2023-08-02T02:23:52.441Z,96.30
2023-08-02T02:24:56.818Z,96.30
2023-08-02T02:25:59.399Z,96.30
2023-08-02T02:27:03.551Z,96.30
2023-08-02T02:28:06.569Z,96.30
2023-08-02T02:29:10.146Z,96.30
2023-08-02T02:30:13.149Z,96.30
2023-08-02T02:31:16.737Z,96.30
2023-08-02T02:32:20.010Z,96.30
2023-08-02T02:33:23.645Z,96.30
2023-08-02T02:34:26.237Z,96.30
2023-08-02T02:35:29.864Z,96.30
2023-08-02T02:36:32.456Z,96.30
2023-08-02T02:37:36.390Z,96.30
2023-08-02T02:38:38.972Z,96.30
2023-08-02T02:39:44.029Z,96.30
2023-08-02T02:40:46.641Z,96.30
2023-08-02T02:41:50.366Z,96.30
2023-08-02T02:42:53.089Z,96.30
2023-08-02T02:43:56.690Z,96.30
2023-08-02T02:44:59.551Z,96.30
2023-08-02T02:46:03.680Z,96.30
2023-08-02T02:47:06.538Z,96.30
2023-08-02T02:48:10.306Z,96.30
2023-08-02T02:49:12.841Z,96.30
2023-08-02T02:50:15.687Z,96.30
2023-08-02T02:51:19.324Z,96.30
2023-08-02T02:52:22.254Z,96.30
2023-08-02T02:53:26.411Z,96.30
2023-08-02T02:54:29.010Z,96.30
2023-08-02T02:55:33.982Z,96.30
2023-08-02T02:56:36.560Z,96.30
2023-08-02T02:57:40.186Z,96.30
2023-08-02T02:58:42.839Z,96.30
2023-08-02T02:59:46.476Z,96.30
2023-08-02T03:00:49.339Z,96.30
2023-08-02T03:01:53.276Z,96.30
2023-08-02T03:02:56.041Z,96.30
2023-08-02T03:03:59.802Z,96.30
2023-08-02T03:05:02.458Z,96.30
2023-08-02T03:06:06.383Z,96.30
2023-08-02T03:07:09.022Z,96.30
2023-08-02T03:08:12.557Z,96.30
2023-08-02T03:09:15.094Z,96.30
2023-08-02T03:10:18.940Z,96.30
2023-08-02T03:11:23.046Z,96.30
2023-08-02T03:12:26.694Z,96.30
2023-08-02T03:13:29.296Z,96.30
2023-08-02T03:14:33.039Z,96.30
2023-08-02T03:15:35.734Z,96.30
2023-08-02T03:16:39.899Z,96.30
2023-08-02T03:17:42.893Z,96.30
2023-08-02T03:18:46.460Z,96.30
2023-08-02T03:19:49.006Z,96.30
2023-08-02T03:20:52.722Z,96.30
2023-08-02T03:21:55.348Z,96.30
2023-08-02T03:22:58.786Z,96.30
2023-08-02T03:24:01.470Z,96.30
2023-08-02T03:25:05.568Z,96.30
2023-08-02T03:26:08.129Z,96.30
2023-08-02T03:27:12.970Z,96.30
2023-08-02T03:28:15.558Z,96.30
2023-08-02T03:29:19.139Z,96.30
2023-08-02T03:30:21.769Z,96.30
2023-08-02T03:31:25.392Z,96.30
2023-08-02T03:32:28.162Z,96.30
2023-08-02T03:33:31.925Z,96.30
2023-08-02T03:34:34.628Z,96.30
2023-08-02T03:35:38.281Z,96.30
2023-08-02T03:36:43.713Z,96.30
2023-08-02T03:37:46.834Z,96.30
2023-08-02T03:38:50.454Z,96.30
2023-08-02T03:39:53.148Z,96.30
2023-08-02T03:40:56.694Z,96.30
2023-08-02T03:41:59.450Z,96.30
2023-08-02T03:43:04.474Z,96.30
2023-08-02T03:44:07.033Z,96.30
2023-08-02T03:45:11.900Z,96.30
2023-08-02T03:46:14.552Z,96.30
2023-08-02T03:47:18.647Z,96.30
2023-08-02T03:48:21.200Z,96.30
2023-08-02T03:49:25.372Z,96.30
2023-08-02T03:50:29.008Z,96.30
2023-08-02T03:51:31.747Z,96.30
2023-08-02T03:52:35.366Z,96.30
2023-08-02T03:53:37.930Z,96.30
2023-08-02T03:54:41.472Z,96.30
2023-08-02T03:55:44.140Z,96.30
2023-08-02T03:56:47.943Z,96.30
2023-08-02T03:57:50.708Z,96.30
2023-08-02T03:58:55.807Z,96.30
2023-08-02T03:59:58.536Z,96.30
2023-08-02T04:01:02.089Z,96.30
2023-08-02T04:02:05.063Z,96.30
2023-08-02T04:03:08.848Z,96.30
2023-08-02T04:04:11.540Z,96.30
2023-08-02T04:05:15.177Z,96.30
2023-08-02T04:06:17.861Z,96.30
2023-08-02T04:07:21.584Z,96.30
2023-08-02T04:08:24.409Z,96.30
2023-08-02T04:09:29.056Z,96.30
2023-08-02T04:10:31.775Z,96.30
2023-08-02T04:11:35.423Z,96.30
2023-08-02T04:12:38.115Z,96.30
2023-08-02T04:13:41.912Z,96.30
2023-08-02T04:14:45.909Z,96.30
2023-08-02T04:15:50.492Z,96.30
2023-08-02T04:16:53.473Z,96.30
2023-08-02T04:17:57.500Z,96.30
2023-08-02T04:19:00.159Z,96.30
2023-08-02T04:20:04.706Z,96.30
2023-08-02T04:21:07.196Z,96.30
2023-08-02T04:22:09.872Z,96.30
2023-08-02T04:23:13.406Z,96.30
2023-08-02T04:24:16.204Z,96.30
2023-08-02T04:25:20.088Z,96.30
2023-08-02T04:26:22.682Z,96.30
2023-08-02T04:27:26.626Z,96.30
2023-08-02T04:28:29.407Z,96.30
2023-08-02T04:29:33.386Z,96.30
2023-08-02T04:30:37.420Z,96.30
2023-08-02T04:31:41.197Z,96.30
2023-08-02T04:32:43.947Z,96.30
2023-08-02T04:33:47.640Z,96.30
2023-08-02T04:34:50.245Z,96.30
2023-08-02T04:35:52.878Z,96.30
2023-08-02T04:36:56.338Z,96.30
2023-08-02T04:37:58.904Z,96.30
2023-08-02T04:39:04.935Z,96.30
2023-08-02T04:40:09.399Z,96.30
2023-08-02T04:41:17.966Z,96.30
2023-08-02T04:42:20.625Z,96.30
2023-08-02T04:43:24.169Z,96.30
2023-08-02T04:44:26.980Z,96.30
2023-08-02T04:45:30.791Z,96.30
2023-08-02T04:46:34.751Z,96.30
2023-08-02T04:47:38.431Z,96.30
2023-08-02T04:48:41.063Z,96.30
2023-08-02T04:49:44.591Z,96.30
2023-08-02T04:50:47.495Z,96.30
2023-08-02T04:51:51.104Z,96.30
2023-08-02T04:52:53.567Z,96.30
2023-08-02T04:53:57.110Z,96.30
2023-08-02T04:54:59.627Z,96.30
2023-08-02T04:56:03.302Z,96.30
2023-08-02T04:57:06.323Z,96.30
2023-08-02T04:58:09.876Z,96.30
2023-08-02T04:59:13.691Z,96.30
2023-08-02T05:00:18.455Z,96.30
2023-08-02T05:01:21.402Z,96.30
2023-08-02T05:02:33.977Z,96.30
2023-08-02T05:03:37.059Z,96.30
2023-08-02T05:04:40.743Z,96.30
2023-08-02T05:05:43.343Z,96.30
2023-08-02T05:06:47.034Z,96.30
2023-08-02T05:07:49.612Z,96.30
2023-08-02T05:08:53.116Z,96.30
2023-08-02T05:09:55.905Z,96.30
2023-08-02T05:10:59.750Z,96.30
2023-08-02T05:12:02.489Z,96.30
2023-08-02T05:13:07.359Z,96.30
2023-08-02T05:14:09.892Z,96.30
2023-08-02T05:15:12.684Z,96.30
2023-08-02T05:16:16.830Z,96.30
2023-08-02T05:17:19.384Z,96.30
2023-08-02T05:18:24.931Z,96.30
2023-08-02T05:19:27.687Z,96.30
2023-08-02T05:20:33.888Z,96.30
2023-08-02T05:21:36.517Z,96.30
2023-08-02T05:22:40.264Z,96.30
2023-08-02T05:23:44.015Z,96.30
2023-08-02T05:24:47.785Z,96.30
2023-08-02T05:25:50.421Z,96.30
2023-08-02T05:26:54.143Z,96.30
2023-08-02T05:27:56.762Z,96.30
2023-08-02T05:29:00.271Z,96.30
2023-08-02T05:30:03.036Z,96.30
2023-08-02T05:31:13.104Z,96.30
2023-08-02T05:32:15.636Z,96.30
2023-08-02T05:33:19.444Z,96.30
2023-08-02T05:34:23.462Z,96.30
2023-08-02T05:35:27.178Z,96.30
2023-08-02T05:36:29.817Z,96.30
2023-08-02T05:37:33.686Z,96.30
2023-08-02T05:38:37.122Z,96.30
2023-08-02T05:39:40.826Z,96.30
2023-08-02T05:40:43.358Z,96.30
2023-08-02T05:41:47.036Z,96.30
2023-08-02T05:42:51.341Z,96.30
2023-08-02T05:43:54.830Z,96.30
2023-08-02T05:44:57.480Z,96.30
2023-08-02T05:46:01.201Z,96.30
2023-08-02T05:47:04.777Z,96.30
2023-08-02T05:48:08.302Z,96.30
2023-08-02T05:49:10.849Z,96.30
2023-08-02T05:50:15.909Z,96.30
2023-08-02T05:51:18.521Z,96.30
2023-08-02T05:52:22.125Z,96.30
2023-08-02T05:53:24.839Z,96.30
2023-08-02T05:54:28.446Z,96.30
2023-08-02T05:55:31.012Z,96.30
2023-08-02T05:56:37.106Z,96.30
2023-08-02T05:57:39.909Z,96.30
2023-08-02T05:58:43.392Z,96.30
2023-08-02T05:59:45.855Z,96.30
2023-08-02T06:00:49.526Z,96.30
2023-08-02T06:01:52.152Z,96.30
2023-08-02T06:02:55.859Z,96.30
2023-08-02T06:03:58.529Z,96.30
2023-08-02T06:05:02.919Z,96.30
2023-08-02T06:06:07.338Z,96.30
2023-08-02T06:07:11.095Z,96.30
2023-08-02T06:08:13.721Z,96.30
2023-08-02T06:10:20.233Z,96.30
2023-08-02T06:11:23.696Z,96.30
2023-08-02T06:12:26.530Z,96.30
2023-08-02T06:13:30.922Z,96.30
2023-08-02T06:14:33.917Z,96.30
2023-08-02T06:15:37.625Z,96.30
2023-08-02T06:16:40.205Z,96.30
2023-08-02T06:17:43.872Z,96.30
2023-08-02T06:18:46.538Z,96.30
2023-08-02T06:19:50.181Z,96.30
2023-08-02T06:20:52.690Z,96.30
2023-08-02T06:21:56.654Z,96.30
2023-08-02T06:23:00.121Z,96.30
2023-08-02T06:24:02.884Z,96.30
2023-08-02T06:25:07.654Z,96.30
2023-08-02T06:26:10.800Z,96.30
2023-08-02T06:27:14.413Z,96.30
2023-08-02T06:28:16.867Z,96.30
2023-08-02T06:29:20.606Z,96.30
2023-08-02T06:30:23.265Z,96.30
2023-08-02T06:31:26.959Z,96.30
2023-08-02T06:32:29.676Z,96.30
2023-08-02T06:33:33.353Z,96.30
2023-08-02T06:34:35.945Z,96.30
2023-08-02T06:35:39.597Z,96.30
2023-08-02T06:36:42.136Z,96.30
2023-08-02T06:37:47.105Z,96.30
2023-08-02T06:38:49.977Z,96.30
2023-08-02T06:39:53.558Z,96.30
2023-08-02T06:40:57.308Z,96.30
2023-08-02T06:42:01.037Z,96.30
2023-08-02T06:43:03.754Z,96.30
2023-08-02T06:44:07.302Z,96.30
2023-08-02T06:45:10.635Z,96.30
2023-08-02T06:46:14.280Z,96.30
2023-08-02T06:47:16.872Z,96.30
2023-08-02T06:48:24.812Z,96.30
2023-08-02T06:49:27.459Z,96.30
2023-08-02T06:50:31.046Z,96.30
2023-08-02T06:51:33.648Z,96.30
2023-08-02T06:52:37.261Z,96.30
2023-08-02T06:53:41.483Z,96.30
2023-08-02T06:54:45.176Z,96.30
2023-08-02T06:55:47.801Z,96.30
2023-08-02T06:56:51.571Z,96.30
2023-08-02T06:57:54.097Z,96.30
2023-08-02T06:58:57.732Z,96.30
2023-08-02T07:00:00.245Z,96.30
2023-08-02T07:01:12.438Z,96.30
2023-08-02T07:02:14.985Z,96.30
2023-08-02T07:03:18.559Z,96.30
2023-08-02T07:04:21.141Z,96.30
2023-08-02T07:05:28.110Z,96.30
2023-08-02T07:06:30.682Z,96.30
2023-08-02T07:07:34.438Z,96.30
2023-08-02T07:08:38.165Z,96.30
2023-08-02T07:09:43.055Z,96.30
2023-08-02T07:10:45.638Z,96.30
2023-08-02T07:11:48.224Z,96.30
2023-08-02T07:12:52.203Z,96.30
2023-08-02T07:13:54.835Z,96.30
2023-08-02T07:14:58.370Z,96.30
2023-08-02T07:16:01.243Z,96.30
2023-08-02T07:17:04.783Z,96.30
2023-08-02T07:18:07.555Z,96.30
2023-08-02T07:19:11.158Z,96.30
2023-08-02T07:20:14.668Z,96.30
2023-08-02T07:21:18.318Z,96.30
2023-08-02T07:22:20.784Z,96.30
2023-08-02T07:23:24.987Z,96.30
2023-08-02T07:24:27.564Z,96.30
2023-08-02T07:25:32.886Z,96.30
2023-08-02T07:26:35.748Z,96.30
2023-08-02T07:27:39.107Z,96.30
2023-08-02T07:28:42.646Z,96.30
2023-08-02T07:29:48.632Z,96.30
2023-08-02T07:30:52.215Z,96.30
2023-08-02T07:31:54.825Z,96.30
2023-08-02T07:32:58.643Z,96.30
2023-08-02T07:34:01.166Z,96.30
2023-08-02T07:35:05.611Z,96.30
2023-08-02T07:36:15.489Z,96.30
2023-08-02T07:37:19.129Z,96.30
2023-08-02T07:38:21.627Z,96.30
2023-08-02T07:39:25.389Z,96.30
2023-08-02T07:40:27.968Z,96.30
2023-08-02T07:41:33.387Z,96.30
2023-08-02T07:42:36.010Z,96.30
2023-08-02T07:43:39.631Z,96.30
2023-08-02T07:44:42.355Z,96.30
2023-08-02T07:45:46.174Z,96.30
2023-08-02T07:46:49.132Z,96.30
2023-08-02T07:47:52.955Z,96.30
2023-08-02T07:48:56.326Z,96.30
2023-08-02T07:49:59.883Z,96.30
2023-08-02T07:52:09.552Z,96.30
2023-08-02T07:53:12.100Z,96.30
2023-08-02T07:54:15.568Z,96.30
2023-08-02T07:55:18.269Z,96.30
2023-08-02T07:56:22.520Z,96.30
2023-08-02T07:57:31.904Z,96.30
2023-08-02T07:58:35.759Z,96.30
2023-08-02T07:59:38.375Z,96.30
2023-08-02T08:00:41.975Z,96.30
2023-08-02T08:01:45.130Z,96.30
2023-08-02T08:02:49.333Z,96.30
2023-08-02T08:03:52.170Z,96.30
2023-08-02T08:04:58.465Z,96.30
2023-08-02T08:06:09.328Z,96.30
2023-08-02T08:07:12.970Z,96.30
2023-08-02T08:08:15.833Z,96.30
2023-08-02T08:09:25.090Z,96.30
2023-08-02T08:10:27.951Z,96.30
2023-08-02T08:11:31.980Z,96.30
2023-08-02T08:12:37.331Z,96.30
2023-08-02T08:13:39.975Z,96.30
2023-08-02T08:14:44.745Z,96.30
2023-08-02T08:15:48.588Z,96.30
2023-08-02T08:16:52.311Z,96.30
2023-08-02T08:17:54.961Z,96.30
2023-08-02T08:18:58.523Z,96.30
2023-08-02T08:20:01.327Z,96.30
2023-08-02T08:21:07.529Z,96.30
2023-08-02T08:22:10.265Z,96.30
2023-08-02T08:23:14.008Z,96.30
2023-08-02T08:24:16.562Z,96.30
2023-08-02T08:25:22.191Z,96.30
2023-08-02T08:26:25.034Z,96.30
2023-08-02T08:27:27.592Z,96.30
2023-08-02T08:28:33.577Z,96.30
2023-08-02T08:29:36.082Z,96.30
2023-08-02T08:30:39.734Z,96.30
2023-08-02T08:31:44.634Z,96.30
2023-08-02T08:32:48.466Z,96.30
2023-08-02T08:33:51.074Z,96.30
2023-08-02T08:34:54.913Z,96.30
2023-08-02T08:35:57.556Z,96.30
2023-08-02T08:37:01.157Z,96.30
2023-08-02T08:38:04.045Z,96.30
2023-08-02T08:39:06.941Z,96.30
2023-08-02T08:40:18.498Z,96.30
2023-08-02T08:41:21.177Z,96.30
2023-08-02T08:42:24.770Z,96.30
2023-08-02T08:43:28.585Z,96.30
2023-08-02T08:44:33.829Z,96.30
2023-08-02T08:45:37.631Z,96.30
2023-08-02T08:46:42.900Z,96.30
2023-08-02T08:47:48.167Z,96.30
2023-08-02T08:48:51.892Z,96.30
2023-08-02T08:50:00.588Z,96.30
2023-08-02T08:51:05.332Z,96.30
2023-08-02T08:52:12.448Z,96.30
2023-08-02T08:53:22.809Z,96.30
2023-08-02T08:54:28.459Z,96.30
2023-08-02T08:55:35.171Z,96.30
2023-08-02T08:56:40.984Z,96.30
2023-08-02T08:57:46.729Z,96.30
2023-08-02T08:58:51.259Z,96.30
2023-08-02T08:59:56.525Z,96.30
2023-08-02T09:00:59.632Z,96.30
2023-08-02T09:02:03.944Z,96.30
2023-08-02T09:03:07.105Z,96.30
2023-08-02T09:04:10.781Z,96.30
2023-08-02T09:05:14.471Z,96.30
2023-08-02T09:06:18.131Z,96.30
2023-08-02T09:07:20.693Z,96.30
2023-08-02T09:08:24.354Z,96.30
2023-08-02T09:09:26.913Z,96.30
2023-08-02T09:10:30.952Z,96.30
2023-08-02T09:11:33.654Z,96.30
2023-08-02T09:12:47.944Z,96.30
2023-08-02T09:14:08.622Z,96.30
2023-08-02T09:15:14.908Z,96.30
2023-08-02T09:16:18.586Z,96.30
2023-08-02T09:17:22.617Z,96.30
2023-08-02T09:18:35.857Z,96.30
2023-08-02T09:19:39.426Z,96.30
2023-08-02T09:20:53.695Z,96.30
2023-08-02T09:22:11.267Z,96.30
2023-08-02T09:23:16.380Z,96.30
2023-08-02T09:24:33.585Z,96.30
2023-08-02T09:25:36.384Z,96.30
2023-08-02T09:26:40.214Z,96.30
2023-08-02T09:27:42.859Z,96.30
2023-08-02T09:29:01.866Z,96.30
2023-08-02T09:30:05.513Z,96.30
2023-08-02T09:31:20.749Z,96.30
2023-08-02T09:32:26.067Z,96.30
2023-08-02T09:33:29.913Z,96.30
2023-08-02T09:34:43.726Z,96.30
2023-08-02T09:35:53.046Z,96.30
2023-08-02T09:36:55.654Z,96.30
2023-08-02T09:37:59.279Z,96.30
2023-08-02T09:39:04.832Z,96.30
2023-08-02T09:40:12.378Z,96.30
2023-08-02T09:41:51.622Z,96.30
2023-08-02T09:42:47.503Z,96.30
2023-08-02T09:43:50.607Z,96.30
2023-08-02T09:44:57.056Z,96.30
2023-08-02T09:45:59.704Z,96.30
2023-08-02T09:47:12.205Z,96.30
2023-08-02T09:48:15.801Z,96.30
2023-08-02T09:49:21.363Z,96.30
2023-08-02T09:50:23.957Z,96.30
2023-08-02T09:51:42.804Z,96.30
2023-08-02T09:52:45.586Z,96.30
2023-08-02T09:53:58.808Z,96.30
2023-08-02T09:55:01.410Z,96.30
2023-08-02T09:56:06.113Z,96.30
2023-08-02T09:57:09.358Z,96.30
2023-08-02T09:58:14.721Z,96.30
2023-08-02T09:59:20.006Z,96.30
2023-08-02T10:00:23.904Z,96.30
2023-08-02T10:01:27.224Z,96.30
2023-08-02T10:02:32.990Z,96.30
2023-08-02T10:03:36.693Z,96.30
2023-08-02T10:04:40.596Z,96.30
2023-08-02T10:05:46.027Z,96.30
2023-08-02T10:06:54.029Z,96.30
2023-08-02T10:07:58.227Z,96.30
2023-08-02T10:09:06.263Z,96.30
2023-08-02T10:10:15.531Z,96.30
2023-08-02T10:11:19.920Z,96.30
2023-08-02T10:12:22.742Z,96.30
2023-08-02T10:13:32.924Z,96.30
2023-08-02T10:14:36.753Z,96.30
2023-08-02T10:15:41.709Z,96.30
2023-08-02T10:16:46.099Z,96.30
2023-08-02T10:17:51.506Z,96.30
2023-08-02T10:18:55.334Z,96.30
2023-08-02T10:20:01.639Z,96.30
2023-08-02T10:21:06.155Z,96.30
2023-08-02T10:22:09.952Z,96.30
2023-08-02T10:23:12.533Z,96.30
2023-08-02T10:24:16.726Z,96.30
2023-08-02T10:25:21.569Z,96.30
2023-08-02T10:26:25.984Z,96.30
2023-08-02T10:27:29.727Z,96.30
2023-08-02T10:28:34.546Z,96.30
2023-08-02T10:29:38.581Z,96.30
2023-08-02T10:30:43.298Z,96.30
2023-08-02T10:31:45.818Z,96.30
2023-08-02T10:33:14.336Z,96.30
2023-08-02T10:34:46.162Z,96.30
2023-08-02T10:36:02.197Z,96.30
2023-08-02T10:37:05.414Z,96.20
2023-08-02T10:38:09.002Z,95.30
2023-08-02T10:39:11.547Z,95.30
2023-08-02T10:41:19.969Z,94.80
2023-08-02T10:42:27.060Z,94.20
2023-08-02T10:43:29.524Z,93.90
2023-08-02T10:44:34.751Z,93.60
2023-08-02T10:45:37.378Z,92.90
2023-08-02T10:46:41.523Z,92.40
2023-08-02T10:47:44.527Z,91.50
2023-08-02T10:48:49.858Z,92.00
2023-08-02T10:49:53.925Z,91.90
2023-08-02T10:50:57.855Z,92.20
2023-08-02T10:52:24.957Z,92.00
2023-08-02T10:53:28.754Z,92.00
2023-08-02T10:54:33.670Z,91.50
2023-08-02T10:55:41.440Z,90.70
2023-08-02T10:57:12.085Z,91.40
2023-08-02T10:58:15.586Z,91.40
2023-08-02T10:59:19.154Z,91.70
2023-08-02T11:00:25.192Z,91.10
2023-08-02T11:01:27.970Z,90.90
2023-08-02T11:02:47.858Z,90.90
2023-08-02T11:03:54.676Z,90.80
2023-08-02T11:04:57.272Z,90.60
2023-08-02T11:07:14.085Z,89.80
2023-08-02T11:08:17.419Z,91.20
2023-08-02T11:09:32.202Z,91.20
2023-08-02T11:10:35.248Z,90.50
2023-08-02T11:11:39.418Z,90.60
2023-08-02T11:12:41.951Z,90.40
2023-08-02T11:13:44.561Z,90.50
2023-08-02T11:14:51.131Z,90.40
2023-08-02T11:16:04.460Z,90.30
2023-08-02T11:18:14.184Z,90.00
2023-08-02T11:19:22.957Z,90.70
2023-08-02T11:20:28.546Z,91.70
2023-08-02T11:21:32.344Z,90.90
2023-08-02T11:24:51.907Z,91.10
2023-08-02T11:26:13.733Z,91.30
2023-08-02T11:27:21.008Z,91.50
2023-08-02T11:28:25.591Z,92.20
2023-08-02T11:29:29.162Z,92.30
2023-08-02T11:30:31.771Z,93.20
2023-08-02T11:31:35.363Z,91.80
2023-08-02T11:32:44.333Z,93.00
2023-08-02T11:33:48.023Z,92.90
2023-08-02T11:34:52.116Z,93.10
2023-08-02T11:35:55.704Z,92.40
2023-08-02T11:36:58.342Z,93.70
2023-08-02T11:38:02.275Z,94.00
2023-08-02T11:39:04.830Z,93.80
2023-08-02T11:41:19.352Z,95.10
2023-08-02T11:42:23.003Z,95.50
2023-08-02T11:43:35.840Z,96.30
2023-08-02T11:44:49.619Z,95.90
2023-08-02T11:46:01.134Z,95.60
2023-08-02T11:47:08.107Z,96.30
2023-08-02T11:48:25.570Z,96.20
2023-08-02T11:49:29.452Z,96.30
2023-08-02T11:50:36.296Z,96.10
2023-08-02T11:51:47.080Z,96.20
2023-08-02T11:52:49.817Z,94.50
2023-08-02T11:53:57.155Z,94.90
2023-08-02T11:55:00.878Z,94.50
2023-08-02T11:56:05.259Z,93.40
2023-08-02T11:57:08.366Z,93.20
2023-08-02T11:58:13.006Z,93.10
2023-08-02T11:59:16.396Z,92.80
2023-08-02T12:00:20.361Z,94.40
2023-08-02T12:01:23.613Z,94.30
2023-08-02T12:02:28.642Z,94.90
2023-08-02T12:03:32.263Z,94.20
2023-08-02T12:04:40.871Z,96.10
2023-08-02T12:05:47.875Z,96.00
2023-08-02T12:06:53.103Z,96.30
2023-08-02T12:08:12.048Z,96.00
2023-08-02T12:09:15.458Z,94.70
2023-08-02T12:10:30.985Z,94.70
2023-08-02T12:11:33.779Z,95.10
2023-08-02T12:12:37.790Z,94.80
2023-08-02T12:13:45.306Z,95.20
2023-08-02T12:14:49.229Z,94.70
2023-08-02T12:16:00.797Z,95.00
2023-08-02T12:17:04.618Z,96.30
2023-08-02T12:18:09.018Z,95.70
2023-08-02T12:19:13.614Z,96.20
2023-08-02T12:20:30.574Z,95.80
2023-08-02T12:21:35.476Z,94.00
2023-08-02T12:22:49.289Z,93.70
2023-08-02T12:23:53.673Z,94.50
2023-08-02T12:25:08.281Z,93.20
2023-08-02T12:26:11.868Z,93.60
2023-08-02T12:27:16.694Z,94.80
2023-08-02T12:28:19.205Z,92.50
2023-08-02T12:29:24.915Z,93.40
2023-08-02T12:31:42.523Z,95.20
2023-08-02T12:32:45.149Z,96.30
2023-08-02T12:33:49.656Z,94.60
2023-08-02T12:35:01.788Z,94.90
2023-08-02T12:36:25.854Z,94.70
2023-08-02T12:37:29.860Z,93.00
2023-08-02T12:38:34.105Z,93.10
2023-08-02T12:39:36.665Z,92.40
2023-08-02T12:40:40.294Z,93.90
2023-08-02T12:41:42.923Z,94.30
2023-08-02T12:43:01.042Z,95.70
2023-08-02T12:44:06.708Z,96.30
2023-08-02T12:45:17.237Z,96.30
2023-08-02T12:46:22.143Z,96.30
2023-08-02T12:47:25.024Z,95.40
2023-08-02T12:48:28.687Z,94.40
2023-08-02T12:49:31.402Z,96.30
2023-08-02T12:50:43.633Z,95.10
2023-08-02T12:51:46.314Z,94.90
2023-08-02T12:52:51.245Z,94.80
2023-08-02T12:53:53.799Z,92.00
2023-08-02T12:54:57.837Z,93.30
2023-08-02T12:56:00.585Z,93.50
2023-08-02T12:57:04.083Z,91.80
2023-08-02T12:58:06.861Z,92.00
2023-08-02T12:59:10.578Z,91.10
2023-08-02T13:00:13.936Z,93.00
2023-08-02T13:01:17.488Z,91.10
2023-08-02T13:02:20.126Z,90.30
2023-08-02T13:03:24.048Z,93.60
2023-08-02T13:04:26.915Z,91.70
2023-08-02T13:05:30.440Z,91.70
2023-08-02T13:06:35.633Z,90.10
2023-08-02T13:07:43.861Z,90.80
2023-08-02T13:08:48.499Z,91.60
2023-08-02T13:09:52.934Z,92.50
2023-08-02T13:10:57.420Z,88.80
2023-08-02T13:12:07.767Z,89.10
2023-08-02T13:13:11.351Z,91.10
2023-08-02T13:14:14.918Z,90.30
2023-08-02T13:15:17.443Z,90.50
2023-08-02T13:16:21.118Z,92.40
2023-08-02T13:17:23.670Z,92.60
2023-08-02T13:18:29.121Z,90.70
2023-08-02T13:19:32.996Z,91.00
2023-08-02T13:20:36.437Z,88.30
2023-08-02T13:21:39.056Z,90.60
2023-08-02T13:22:42.613Z,90.70
2023-08-02T13:23:45.184Z,90.50
2023-08-02T13:24:50.206Z,92.00
2023-08-02T13:25:52.757Z,91.20
2023-08-02T13:26:56.359Z,92.80
2023-08-02T13:27:58.869Z,91.90
2023-08-02T13:29:02.400Z,90.30
2023-08-02T13:30:06.408Z,91.10
2023-08-02T13:31:10.013Z,88.90
2023-08-02T13:32:12.573Z,91.30
2023-08-02T13:33:16.271Z,92.60
2023-08-02T13:34:18.757Z,91.90
2023-08-02T13:35:22.356Z,89.60
2023-08-02T13:36:25.006Z,91.10
2023-08-02T13:37:28.867Z,89.30
2023-08-02T13:38:31.782Z,89.70
2023-08-02T13:39:35.411Z,90.70
2023-08-02T13:40:39.384Z,90.40
2023-08-02T13:41:43.097Z,89.10
2023-08-02T13:42:45.872Z,89.30
2023-08-02T13:43:49.447Z,89.40
2023-08-02T13:44:52.660Z,90.10
2023-08-02T13:45:56.305Z,88.80
2023-08-02T13:47:00.719Z,87.80
2023-08-02T13:48:05.011Z,87.40
2023-08-02T13:49:07.597Z,85.20
2023-08-02T13:50:12.140Z,84.60
2023-08-02T13:51:14.632Z,85.60
2023-08-02T13:52:18.898Z,86.10
2023-08-02T13:53:21.633Z,85.00
2023-08-02T13:54:25.228Z,84.60
2023-08-02T13:55:30.573Z,83.20
2023-08-02T13:56:36.108Z,84.00
2023-08-02T13:57:38.628Z,83.80
2023-08-02T13:58:42.176Z,83.40
2023-08-02T13:59:44.820Z,83.40
2023-08-02T14:00:48.478Z,83.70
2023-08-02T14:01:51.072Z,83.60
2023-08-02T14:02:54.599Z,82.90
2023-08-02T14:03:57.295Z,81.40